createdAt,value
2023-03-02T00:03:09.107Z,39.90
2023-03-02T00:08:19.896Z,39.97
2023-03-02T00:13:28.308Z,36.97
2023-03-02T00:18:35.115Z,39.10
2023-03-02T00:23:42.337Z,42.93
2023-03-02T00:28:50.235Z,43.67
2023-03-02T00:33:57.880Z,42.73
2023-03-02T00:39:05.314Z,44.30
2023-03-02T00:44:15.059Z,42.03
2023-03-02T00:49:23.352Z,44.63
2023-03-02T00:54:31.360Z,42.67
2023-03-02T00:59:40.640Z,40.77
2023-03-02T01:04:49.207Z,38.00
2023-03-02T01:09:58.785Z,37.20
2023-03-02T01:15:09.718Z,38.63
2023-03-02T01:20:17.826Z,39.00
2023-03-02T01:25:25.709Z,39.00
2023-03-02T01:30:33.529Z,39.83
2023-03-02T01:35:42.014Z,39.87
2023-03-02T01:40:49.778Z,38.83
2023-03-02T01:46:10.390Z,36.58
2023-03-02T01:51:22.210Z,36.93
2023-03-02T01:56:34.896Z,35.65
2023-03-02T02:01:46.656Z,34.67
2023-03-02T02:07:07.324Z,37.03
2023-03-02T02:12:22.534Z,35.98
2023-03-02T02:17:34.185Z,36.13
2023-03-02T02:23:07.733Z,35.37
2023-03-02T02:28:20.799Z,34.37
2023-03-02T02:33:29.732Z,35.08
2023-03-02T02:38:42.270Z,35.00
2023-03-02T02:43:50.771Z,33.93
2023-03-02T02:48:57.903Z,34.40
2023-03-02T02:54:07.063Z,33.73
2023-03-02T02:59:30.502Z,33.83
2023-03-02T03:04:39.594Z,32.90
2023-03-02T03:09:58.503Z,34.40
2023-03-02T03:15:06.418Z,34.87
2023-03-02T03:20:17.758Z,39.70
2023-03-02T03:25:29.701Z,38.65
2023-03-02T03:30:37.465Z,36.67
2023-03-02T03:35:45.824Z,38.10
2023-03-02T03:40:52.657Z,41.13
2023-03-02T03:46:00.443Z,35.23
2023-03-02T03:51:09.789Z,33.98
2023-03-02T03:56:19.864Z,33.20
2023-03-02T04:01:30.053Z,35.43
2023-03-02T04:06:39.252Z,30.40
2023-03-02T04:11:49.406Z,32.30
2023-03-02T04:16:57.201Z,30.93
2023-03-02T04:22:04.910Z,30.53
2023-03-02T04:27:12.174Z,31.43
2023-03-02T04:32:21.579Z,30.97
2023-03-02T04:37:31.599Z,31.90
2023-03-02T04:42:39.324Z,31.50
2023-03-02T04:47:46.517Z,30.43
2023-03-02T04:52:53.577Z,28.83
2023-03-02T04:58:02.170Z,29.17
2023-03-02T05:03:11.883Z,30.53
2023-03-02T05:08:19.741Z,28.20
2023-03-02T05:13:28.386Z,28.47
2023-03-02T05:18:37.631Z,29.18
2023-03-02T05:23:45.781Z,29.77
2023-03-02T05:28:54.085Z,30.13
2023-03-02T05:34:01.988Z,28.67
2023-03-02T05:39:11.761Z,28.10
2023-03-02T05:44:20.673Z,28.30
2023-03-02T05:49:28.445Z,29.82
2023-03-02T05:54:36.251Z,30.00
2023-03-02T05:59:43.587Z,31.90
2023-03-02T06:04:51.375Z,31.27
2023-03-02T06:09:58.588Z,30.50
2023-03-02T06:15:08.809Z,32.47
2023-03-02T06:20:18.691Z,39.10
2023-03-02T06:25:27.034Z,41.43
2023-03-02T06:30:35.049Z,30.43
2023-03-02T06:35:42.535Z,31.20
2023-03-02T06:40:50.476Z,33.87
2023-03-02T06:45:58.365Z,33.80
2023-03-02T06:51:05.749Z,35.53
2023-03-02T06:56:14.432Z,39.33
2023-03-02T07:01:23.496Z,37.83
2023-03-02T07:06:31.080Z,38.95
2023-03-02T07:11:39.033Z,36.23
2023-03-02T07:16:46.645Z,35.63
2023-03-02T07:21:54.021Z,37.77
2023-03-02T07:27:00.736Z,37.93
2023-03-02T07:32:10.152Z,39.67
2023-03-02T07:37:16.659Z,42.40
2023-03-02T07:42:24.674Z,42.90
2023-03-02T07:47:32.839Z,45.38
2023-03-02T07:52:39.893Z,43.47
2023-03-02T08:02:53.712Z,43.17
2023-03-02T08:08:01.058Z,49.73
2023-03-02T08:13:08.636Z,52.93
2023-03-02T08:18:16.371Z,48.60
2023-03-02T08:23:24.216Z,48.52
2023-03-02T08:28:34.353Z,50.55
2023-03-02T08:33:41.046Z,53.03
2023-03-02T08:38:49.827Z,54.47
2023-03-02T08:43:57.474Z,56.20
2023-03-02T08:49:04.428Z,56.70
2023-03-02T08:54:13.959Z,58.47
2023-03-02T08:59:23.022Z,58.63
2023-03-02T09:04:30.283Z,60.17
2023-03-02T09:14:47.530Z,54.77
2023-03-02T09:19:54.512Z,52.73
2023-03-02T09:25:01.388Z,53.63
2023-03-02T09:30:09.842Z,52.45
2023-03-02T09:35:16.741Z,50.80
2023-03-02T09:40:27.747Z,51.37
2023-03-02T09:46:01.315Z,51.53
2023-03-02T09:51:32.682Z,51.03
2023-03-02T09:56:54.691Z,51.30
2023-03-02T10:02:32.457Z,52.07
2023-03-02T10:07:41.806Z,51.43
2023-03-02T10:13:07.109Z,51.83
2023-03-02T10:18:43.579Z,50.83
2023-03-02T10:24:20.148Z,50.93
2023-03-02T10:29:55.626Z,51.73
2023-03-02T10:35:24.610Z,52.17
2023-03-02T10:40:48.374Z,52.55
2023-03-02T10:46:08.951Z,52.00
2023-03-02T10:51:38.062Z,53.37
2023-03-02T10:56:52.130Z,53.40
2023-03-02T11:02:18.534Z,53.70
2023-03-02T11:07:30.125Z,39.67
2023-03-02T11:12:38.804Z,53.10
2023-03-02T11:17:49.601Z,51.27
2023-03-02T11:23:23.099Z,47.30
2023-03-02T11:28:34.935Z,51.73
2023-03-02T11:34:34.895Z,47.56
2023-03-02T11:39:56.169Z,51.80
2023-03-02T11:45:25.765Z,50.33
2023-03-02T11:50:37.696Z,50.80
2023-03-02T11:55:50.058Z,54.93
2023-03-02T12:00:58.244Z,53.57
2023-03-02T12:06:22.372Z,49.67
2023-03-02T12:11:39.321Z,53.87
2023-03-02T12:16:46.725Z,54.33
2023-03-02T12:22:05.969Z,53.33
2023-03-02T12:27:23.118Z,54.22
2023-03-02T12:32:35.035Z,55.33
2023-03-02T12:38:07.156Z,55.27
2023-03-02T12:43:30.297Z,54.17
2023-03-02T12:48:50.277Z,55.60
2023-03-02T12:54:16.138Z,55.07
2023-03-02T12:59:29.380Z,60.95
2023-03-02T13:04:36.129Z,55.17
2023-03-02T13:09:55.660Z,56.53
2023-03-02T13:14:59.206Z,55.37
2023-03-02T13:20:07.688Z,54.10
2023-03-02T13:25:30.488Z,54.87
2023-03-02T13:30:40.802Z,53.80
2023-03-02T13:35:49.676Z,56.40
2023-03-02T13:40:58.790Z,54.53
2023-03-02T13:46:16.295Z,53.17
2023-03-02T13:51:26.347Z,49.53
2023-03-02T13:56:39.652Z,54.00
2023-03-02T14:01:46.744Z,53.53
2023-03-02T14:06:56.828Z,52.10
2023-03-02T14:12:03.197Z,54.17
2023-03-02T14:22:26.639Z,55.50
2023-03-02T14:27:35.560Z,50.40
2023-03-02T14:32:42.105Z,54.27
2023-03-02T14:37:51.325Z,53.53
2023-03-02T14:42:59.051Z,53.07
2023-03-02T14:48:07.155Z,53.50
2023-03-02T14:53:25.194Z,52.53
2023-03-02T14:58:35.277Z,54.35
2023-03-02T15:03:42.190Z,54.37
2023-03-02T15:08:49.320Z,56.35
2023-03-02T15:13:56.576Z,58.13
2023-03-02T15:19:03.955Z,56.43
2023-03-02T15:24:11.107Z,55.77
2023-03-02T15:29:19.795Z,54.88
2023-03-02T15:34:27.214Z,54.70
2023-03-02T15:39:35.025Z,55.77
2023-03-02T15:44:42.198Z,55.00
2023-03-02T15:49:50.011Z,58.87
2023-03-02T15:54:57.199Z,58.70
2023-03-02T16:00:05.361Z,56.45
2023-03-02T16:05:12.220Z,57.07
2023-03-02T16:10:21.456Z,60.63
2023-03-02T16:15:31.693Z,62.75
2023-03-02T16:20:41.570Z,53.83
2023-03-02T16:25:50.334Z,54.70
2023-03-02T16:31:06.842Z,55.37
2023-03-02T16:36:14.944Z,53.42
2023-03-02T16:41:24.832Z,53.80
2023-03-02T16:46:40.008Z,54.33
2023-03-02T16:51:47.238Z,53.83
2023-03-02T16:56:54.338Z,52.53
2023-03-02T17:02:01.134Z,52.53
2023-03-02T17:07:09.162Z,56.68
2023-03-02T17:12:16.100Z,54.10
2023-03-02T17:17:25.943Z,56.53
2023-03-02T17:22:33.092Z,54.98
2023-03-02T17:27:40.604Z,55.43
2023-03-02T17:32:48.895Z,62.23
2023-03-02T17:37:56.213Z,56.70
2023-03-02T17:48:11.581Z,62.37
2023-03-02T17:53:18.788Z,70.97
2023-03-02T17:58:30.618Z,75.93
2023-03-02T18:03:35.056Z,80.63
2023-03-02T18:08:43.115Z,63.80
2023-03-02T18:13:54.074Z,75.97
2023-03-02T18:19:02.399Z,62.47
2023-03-02T18:24:10.794Z,57.90
2023-03-02T18:29:18.650Z,65.00
2023-03-02T18:34:27.004Z,61.42
2023-03-02T18:39:34.221Z,60.77
2023-03-02T18:44:41.326Z,63.33
2023-03-02T18:49:51.183Z,59.53
2023-03-02T18:54:58.857Z,64.20
2023-03-02T19:00:09.227Z,56.70
2023-03-02T19:05:18.303Z,83.70
2023-03-02T19:10:26.520Z,73.23
2023-03-02T19:15:36.395Z,64.40
2023-03-02T19:20:46.388Z,61.83
2023-03-02T19:25:53.850Z,55.40
2023-03-02T19:31:09.089Z,57.67
2023-03-02T19:36:17.663Z,64.25
2023-03-02T19:41:25.359Z,73.07
2023-03-02T19:46:33.823Z,71.33
2023-03-02T19:51:41.467Z,61.57
2023-03-02T19:56:50.576Z,63.92
2023-03-02T20:02:00.260Z,63.87
2023-03-02T20:07:07.657Z,60.80
2023-03-02T20:12:16.138Z,65.30
2023-03-02T20:17:23.370Z,59.87
2023-03-02T20:22:33.294Z,64.37
2023-03-02T20:27:40.138Z,70.20
2023-03-02T20:32:47.523Z,65.23
2023-03-02T20:37:59.410Z,70.00
2023-03-02T20:43:07.632Z,62.73
2023-03-02T20:48:17.656Z,66.10
2023-03-02T20:53:26.417Z,78.83
2023-03-02T20:58:37.659Z,73.77
2023-03-02T21:03:45.700Z,67.77
2023-03-02T21:08:52.846Z,71.93
2023-03-02T21:14:02.304Z,80.23
2023-03-02T21:19:17.278Z,72.37
2023-03-02T21:24:24.354Z,62.53
2023-03-02T21:29:31.704Z,59.80
2023-03-02T21:34:39.533Z,54.33
2023-03-02T21:39:47.422Z,56.27
2023-03-02T21:44:54.878Z,55.00
2023-03-02T21:50:03.670Z,64.57
2023-03-02T21:55:13.434Z,61.50
2023-03-02T22:00:25.918Z,62.17
2023-03-02T22:05:34.153Z,55.70
2023-03-02T22:10:44.959Z,59.00
2023-03-02T22:15:59.847Z,53.10
2023-03-02T22:21:22.726Z,50.13
2023-03-02T22:26:35.110Z,50.03
2023-03-02T22:31:46.156Z,49.23
2023-03-02T22:36:57.827Z,48.73
2023-03-02T22:42:15.028Z,48.38
2023-03-02T22:47:23.988Z,51.83
2023-03-02T22:52:38.141Z,60.30
2023-03-02T22:57:45.797Z,63.05
2023-03-02T23:08:25.347Z,55.23
2023-03-02T23:13:41.600Z,51.30
2023-03-02T23:18:50.570Z,50.10
2023-03-02T23:23:57.654Z,50.80
2023-03-02T23:29:04.958Z,49.70
2023-03-02T23:34:13.055Z,48.43
2023-03-02T23:39:23.410Z,48.10
2023-03-02T23:44:31.091Z,50.15
2023-03-02T23:49:39.565Z,45.80
2023-03-02T23:54:47.392Z,48.93
2023-03-02T23:59:54.885Z,51.67
